Oski — WYD3004 — position and weather

sailwx.info

Track history (hours):
 
Tides and Currents Weather Stations Pressure Air Temp Water Temp Dewpoint Dewpoint Depression Visibility Wind Speed Wind Dir Waves Ship Positions

Oski

Owner: BLUE & GOLD FLEET, SAN FRANCISCO, CA. More information available from US FCC via Universal Licensing System and Coast Guard Vessel Documentation Center.

Last reported at 2014-Nov-24 01:34 UTC. Time now 2014-Nov-24 18:03 UTC.
Position N 37°50' W 122°26'.

Length 24 m; draft 2 m.

Type: Passenger vessel. MMSI: 366985320.

Date/timePositionNaut miles runAvg speedWind from/ knotsBaromVisibWave heightAir tempDewpointWater temp
2014-Nov-24 01:34N 37°50' W 122°26'2 1.7
2014-Nov-24 00:33N 37°49' W 122°24'0 0.4
2014-Nov-23 23:33N 37°49' W 122°25'3 3.2
2014-Nov-23 22:34N 37°49' W 122°29'3 3.2
2014-Nov-23 21:34N 37°49' W 122°25'3 2.6
2014-Nov-23 20:33N 37°49' W 122°28'2 1.7
2014-Nov-23 19:34N 37°50' W 122°26'2 1.6
2014-Nov-23 18:34N 37°49' W 122°25'2 0.1
2014-Nov-23 01:33N 37°50' W 122°26'1 1.0
2014-Nov-23 00:34N 37°49' W 122°25'1 0.6
2014-Nov-22 23:34N 37°49' W 122°25'3 2.5
2014-Nov-22 22:34N 37°49' W 122°28'3 2.5
2014-Nov-22 21:33N 37°49' W 122°25'3 2.9
2014-Nov-22 20:34N 37°49' W 122°28'2 2.0
2014-Nov-22 19:34N 37°50' W 122°26'2 1.5
2014-Nov-22 18:33N 37°49' W 122°25'2 0.1
2014-Nov-22 01:34N 37°50' W 122°26'2 1.9
2014-Nov-22 00:33N 37°49' W 122°24'0 0.4
2014-Nov-21 23:34N 37°49' W 122°25'3 3.1
2014-Nov-21 22:33N 37°49' W 122°29'3 3.1
2014-Nov-21 21:33N 37°49' W 122°25'3 2.6
2014-Nov-21 20:33N 37°49' W 122°28'1 1.4
2014-Nov-21 19:33N 37°49' W 122°26'  
2014-Nov-18 19:33N 37°48' W 122°24'  
2014-Nov-16 01:27N 37°49' W 122°25'4 4.9
2014-Nov-16 00:33N 37°52' W 122°27'4 4.4
2014-Nov-15 23:34N 37°49' W 122°25'4 4.2
2014-Nov-15 22:34N 37°52' W 122°27'4 4.2
2014-Nov-15 21:33N 37°49' W 122°25'  
Track history (hours):
 
Tides and Currents Weather Stations Pressure Air Temp Water Temp Dewpoint Dewpoint Depression Visibility Wind Speed Wind Dir Waves Ship Positions

Oski

Owner: BLUE & GOLD FLEET, SAN FRANCISCO, CA. More information available from US FCC via Universal Licensing System and Coast Guard Vessel Documentation Center.

Last reported at 2014-Nov-24 01:34 UTC. Time now 2014-Nov-24 18:03 UTC.
Position N 37°50' W 122°26'.

Length 24 m; draft 2 m.

Type: Passenger vessel. MMSI: 366985320.

Date/timePositionNaut miles runAvg speedWind from/ knotsBaromVisibWave heightAir tempDewpointWater temp
2014-Nov-24 01:34N 37°50' W 122°26'2 1.7
2014-Nov-24 00:33N 37°49' W 122°24'0 0.4
2014-Nov-23 23:33N 37°49' W 122°25'3 3.2
2014-Nov-23 22:34N 37°49' W 122°29'3 3.2
2014-Nov-23 21:34N 37°49' W 122°25'3 2.6
2014-Nov-23 20:33N 37°49' W 122°28'2 1.7
2014-Nov-23 19:34N 37°50' W 122°26'2 1.6
2014-Nov-23 18:34N 37°49' W 122°25'2 0.1
2014-Nov-23 01:33N 37°50' W 122°26'1 1.0
2014-Nov-23 00:34N 37°49' W 122°25'1 0.6
2014-Nov-22 23:34N 37°49' W 122°25'3 2.5
2014-Nov-22 22:34N 37°49' W 122°28'3 2.5
2014-Nov-22 21:33N 37°49' W 122°25'3 2.9
2014-Nov-22 20:34N 37°49' W 122°28'2 2.0
2014-Nov-22 19:34N 37°50' W 122°26'2 1.5
2014-Nov-22 18:33N 37°49' W 122°25'2 0.1
2014-Nov-22 01:34N 37°50' W 122°26'2 1.9
2014-Nov-22 00:33N 37°49' W 122°24'0 0.4
2014-Nov-21 23:34N 37°49' W 122°25'3 3.1
2014-Nov-21 22:33N 37°49' W 122°29'3 3.1
2014-Nov-21 21:33N 37°49' W 122°25'3 2.6
2014-Nov-21 20:33N 37°49' W 122°28'1 1.4
2014-Nov-21 19:33N 37°49' W 122°26'  
2014-Nov-18 19:33N 37°48' W 122°24'  
2014-Nov-16 01:27N 37°49' W 122°25'4 4.9
2014-Nov-16 00:33N 37°52' W 122°27'4 4.4
2014-Nov-15 23:34N 37°49' W 122°25'4 4.2
2014-Nov-15 22:34N 37°52' W 122°27'4 4.2
2014-Nov-15 21:33N 37°49' W 122°25'  

Dump ship's entire track history